sensor_id;sensor_type;location;lat;lon;timestamp;pressure;altitude;pressure_sealevel;temperature;humidity
51147;BME280;37207;53.060;18.726;2023-03-19T00:00:32;100728.30;;;3.36;68.42
51147;BME280;37207;53.060;18.726;2023-03-19T00:03:19;100732.20;;;3.33;68.56
51147;BME280;37207;53.060;18.726;2023-03-19T00:05:52;100734.66;;;3.32;68.52
51147;BME280;37207;53.060;18.726;2023-03-19T00:08:19;100729.59;;;3.29;68.79
51147;BME280;37207;53.060;18.726;2023-03-19T00:10:45;100734.29;;;3.26;68.91
51147;BME280;37207;53.060;18.726;2023-03-19T00:13:12;100733.77;;;3.22;68.81
51147;BME280;37207;53.060;18.726;2023-03-19T00:15:38;100732.73;;;3.20;68.89
51147;BME280;37207;53.060;18.726;2023-03-19T00:18:05;100731.73;;;3.17;68.91
51147;BME280;37207;53.060;18.726;2023-03-19T00:20:33;100733.75;;;3.14;69.17
51147;BME280;37207;53.060;18.726;2023-03-19T00:23:00;100737.48;;;3.11;69.17
51147;BME280;37207;53.060;18.726;2023-03-19T00:25:27;100738.59;;;3.08;69.26
51147;BME280;37207;53.060;18.726;2023-03-19T00:27:53;100738.63;;;3.07;69.25
51147;BME280;37207;53.060;18.726;2023-03-19T00:30:21;100740.70;;;3.04;69.44
51147;BME280;37207;53.060;18.726;2023-03-19T00:32:49;100740.17;;;3.01;69.38
51147;BME280;37207;53.060;18.726;2023-03-19T00:35:15;100740.89;;;2.98;69.54
51147;BME280;37207;53.060;18.726;2023-03-19T00:37:42;100741.75;;;2.95;69.70
51147;BME280;37207;53.060;18.726;2023-03-19T00:40:10;100745.05;;;2.94;69.76
51147;BME280;37207;53.060;18.726;2023-03-19T00:42:37;100747.77;;;2.94;69.87
51147;BME280;37207;53.060;18.726;2023-03-19T00:45:03;100748.34;;;2.96;70.00
51147;BME280;37207;53.060;18.726;2023-03-19T00:47:32;100742.85;;;2.97;70.21
51147;BME280;37207;53.060;18.726;2023-03-19T00:49:59;100742.08;;;2.97;70.15
51147;BME280;37207;53.060;18.726;2023-03-19T00:52:26;100741.88;;;2.95;70.29
51147;BME280;37207;53.060;18.726;2023-03-19T00:54:52;100739.33;;;2.95;70.35
51147;BME280;37207;53.060;18.726;2023-03-19T00:57:19;100737.81;;;2.94;70.46
51147;BME280;37207;53.060;18.726;2023-03-19T00:59:46;100738.17;;;2.94;70.47
51147;BME280;37207;53.060;18.726;2023-03-19T01:02:13;100745.07;;;2.96;70.47
51147;BME280;37207;53.060;18.726;2023-03-19T01:04:40;100741.83;;;2.98;70.58
51147;BME280;37207;53.060;18.726;2023-03-19T01:07:07;100739.85;;;2.99;70.50
51147;BME280;37207;53.060;18.726;2023-03-19T01:09:33;100739.64;;;3.00;70.48
51147;BME280;37207;53.060;18.726;2023-03-19T01:12:01;100740.95;;;3.01;70.56
51147;BME280;37207;53.060;18.726;2023-03-19T01:14:31;100737.48;;;3.00;70.44
51147;BME280;37207;53.060;18.726;2023-03-19T01:16:58;100740.29;;;3.00;70.35
51147;BME280;37207;53.060;18.726;2023-03-19T01:19:25;100742.61;;;3.00;70.42
51147;BME280;37207;53.060;18.726;2023-03-19T01:21:52;100742.45;;;3.00;70.22
51147;BME280;37207;53.060;18.726;2023-03-19T01:24:21;100742.36;;;3.01;70.21
51147;BME280;37207;53.060;18.726;2023-03-19T01:26:52;100741.41;;;2.98;70.33
51147;BME280;37207;53.060;18.726;2023-03-19T01:29:36;100741.95;;;2.96;70.39
51147;BME280;37207;53.060;18.726;2023-03-19T01:32:15;100737.20;;;2.93;70.41
51147;BME280;37207;53.060;18.726;2023-03-19T01:34:53;100735.14;;;2.91;70.55
51147;BME280;37207;53.060;18.726;2023-03-19T01:37:20;100730.79;;;2.91;70.48
51147;BME280;37207;53.060;18.726;2023-03-19T01:39:46;100733.94;;;2.89;70.54
51147;BME280;37207;53.060;18.726;2023-03-19T01:42:14;100731.05;;;2.87;70.46
51147;BME280;37207;53.060;18.726;2023-03-19T01:45:35;100735.97;;;2.86;70.51
51147;BME280;37207;53.060;18.726;2023-03-19T01:48:45;100740.63;;;2.87;70.68
51147;BME280;37207;53.060;18.726;2023-03-19T01:51:18;100740.13;;;2.88;70.69
51147;BME280;37207;53.060;18.726;2023-03-19T01:54:03;100738.73;;;2.88;70.67
51147;BME280;37207;53.060;18.726;2023-03-19T01:57:06;100732.58;;;2.88;70.63
51147;BME280;37207;53.060;18.726;2023-03-19T01:59:55;100737.77;;;2.89;70.64
51147;BME280;37207;53.060;18.726;2023-03-19T02:02:42;100737.09;;;2.88;70.61
51147;BME280;37207;53.060;18.726;2023-03-19T02:05:33;100736.55;;;2.85;70.80
51147;BME280;37207;53.060;18.726;2023-03-19T02:08:06;100732.27;;;2.81;70.85
51147;BME280;37207;53.060;18.726;2023-03-19T02:10:35;100737.19;;;2.81;70.94
51147;BME280;37207;53.060;18.726;2023-03-19T02:13:02;100733.98;;;2.81;70.87
51147;BME280;37207;53.060;18.726;2023-03-19T02:15:29;100734.05;;;2.82;70.81
51147;BME280;37207;53.060;18.726;2023-03-19T02:17:57;100736.40;;;2.81;71.20
51147;BME280;37207;53.060;18.726;2023-03-19T02:20:48;100735.02;;;2.80;71.18
51147;BME280;37207;53.060;18.726;2023-03-19T02:23:31;100733.41;;;2.79;71.16
51147;BME280;37207;53.060;18.726;2023-03-19T02:26:06;100732.87;;;2.76;71.04
51147;BME280;37207;53.060;18.726;2023-03-19T02:28:37;100737.69;;;2.74;71.08
51147;BME280;37207;53.060;18.726;2023-03-19T02:31:05;100736.12;;;2.71;71.09
51147;BME280;37207;53.060;18.726;2023-03-19T02:33:33;100734.41;;;2.68;71.23
51147;BME280;37207;53.060;18.726;2023-03-19T02:36:01;100733.50;;;2.63;71.36
51147;BME280;37207;53.060;18.726;2023-03-19T02:38:30;100733.13;;;2.60;71.36
51147;BME280;37207;53.060;18.726;2023-03-19T02:41:01;100732.13;;;2.56;71.37
51147;BME280;37207;53.060;18.726;2023-03-19T02:43:35;100743.29;;;2.53;71.66
51147;BME280;37207;53.060;18.726;2023-03-19T02:46:03;100747.41;;;2.45;71.64
51147;BME280;37207;53.060;18.726;2023-03-19T02:48:31;100745.36;;;2.37;71.73
51147;BME280;37207;53.060;18.726;2023-03-19T02:50:58;100744.42;;;2.31;71.77
51147;BME280;37207;53.060;18.726;2023-03-19T02:53:25;100748.57;;;2.30;71.96
51147;BME280;37207;53.060;18.726;2023-03-19T02:55:52;100745.61;;;2.29;72.00
51147;BME280;37207;53.060;18.726;2023-03-19T02:58:19;100748.64;;;2.27;72.20
51147;BME280;37207;53.060;18.726;2023-03-19T03:00:46;100749.70;;;2.25;72.37
51147;BME280;37207;53.060;18.726;2023-03-19T03:03:12;100747.61;;;2.27;72.38
51147;BME280;37207;53.060;18.726;2023-03-19T03:05:39;100746.45;;;2.30;72.46
51147;BME280;37207;53.060;18.726;2023-03-19T03:08:06;100749.98;;;2.36;72.42
51147;BME280;37207;53.060;18.726;2023-03-19T03:10:33;100752.16;;;2.42;72.09
51147;BME280;37207;53.060;18.726;2023-03-19T03:12:59;100753.29;;;2.48;72.18
51147;BME280;37207;53.060;18.726;2023-03-19T03:15:26;100754.67;;;2.52;72.13
51147;BME280;37207;53.060;18.726;2023-03-19T03:17:53;100757.14;;;2.56;72.04
51147;BME280;37207;53.060;18.726;2023-03-19T03:20:21;100759.06;;;2.58;72.12
51147;BME280;37207;53.060;18.726;2023-03-19T03:22:48;100760.96;;;2.59;72.11
51147;BME280;37207;53.060;18.726;2023-03-19T03:25:15;100758.13;;;2.60;72.04
51147;BME280;37207;53.060;18.726;2023-03-19T03:27:42;100758.37;;;2.62;71.91
51147;BME280;37207;53.060;18.726;2023-03-19T03:30:09;100754.37;;;2.64;71.82
51147;BME280;37207;53.060;18.726;2023-03-19T03:32:37;100750.39;;;2.64;71.81
51147;BME280;37207;53.060;18.726;2023-03-19T03:35:05;100753.00;;;2.62;71.86
51147;BME280;37207;53.060;18.726;2023-03-19T03:37:32;100750.92;;;2.61;72.02
51147;BME280;37207;53.060;18.726;2023-03-19T03:39:59;100748.01;;;2.63;72.03
51147;BME280;37207;53.060;18.726;2023-03-19T03:42:25;100745.23;;;2.64;72.08
51147;BME280;37207;53.060;18.726;2023-03-19T03:44:52;100745.09;;;2.64;72.10
51147;BME280;37207;53.060;18.726;2023-03-19T03:47:19;100746.55;;;2.65;72.29
51147;BME280;37207;53.060;18.726;2023-03-19T03:49:46;100751.04;;;2.67;72.19
51147;BME280;37207;53.060;18.726;2023-03-19T03:52:13;100752.89;;;2.67;72.29
51147;BME280;37207;53.060;18.726;2023-03-19T03:54:39;100752.66;;;2.67;72.35
51147;BME280;37207;53.060;18.726;2023-03-19T03:57:06;100749.39;;;2.67;72.27
51147;BME280;37207;53.060;18.726;2023-03-19T03:59:33;100749.47;;;2.67;72.31
51147;BME280;37207;53.060;18.726;2023-03-19T04:02:00;100751.67;;;2.66;72.39
51147;BME280;37207;53.060;18.726;2023-03-19T04:04:27;100752.63;;;2.65;72.34
51147;BME280;37207;53.060;18.726;2023-03-19T04:06:54;100756.09;;;2.63;72.42
51147;BME280;37207;53.060;18.726;2023-03-19T04:09:28;100748.08;;;2.63;72.48
51147;BME280;37207;53.060;18.726;2023-03-19T04:11:54;100751.65;;;2.61;72.45
51147;BME280;37207;53.060;18.726;2023-03-19T04:14:21;100749.26;;;2.57;72.44
51147;BME280;37207;53.060;18.726;2023-03-19T04:16:47;100754.30;;;2.55;72.54
51147;BME280;37207;53.060;18.726;2023-03-19T04:19:14;100752.74;;;2.51;72.60
51147;BME280;37207;53.060;18.726;2023-03-19T04:21:41;100762.37;;;2.49;72.76
51147;BME280;37207;53.060;18.726;2023-03-19T04:24:07;100763.30;;;2.49;72.82
51147;BME280;37207;53.060;18.726;2023-03-19T04:26:37;100761.62;;;2.48;73.00
51147;BME280;37207;53.060;18.726;2023-03-19T04:29:04;100759.98;;;2.44;72.89
51147;BME280;37207;53.060;18.726;2023-03-19T04:31:30;100759.68;;;2.41;73.01
51147;BME280;37207;53.060;18.726;2023-03-19T04:33:57;100758.62;;;2.36;73.16
51147;BME280;37207;53.060;18.726;2023-03-19T04:36:24;100761.40;;;2.34;73.04
51147;BME280;37207;53.060;18.726;2023-03-19T04:38:51;100757.41;;;2.31;73.26
51147;BME280;37207;53.060;18.726;2023-03-19T04:41:18;100753.95;;;2.29;73.10
51147;BME280;37207;53.060;18.726;2023-03-19T04:43:57;100760.34;;;2.29;73.42
51147;BME280;37207;53.060;18.726;2023-03-19T04:46:24;100760.34;;;2.29;73.36
51147;BME280;37207;53.060;18.726;2023-03-19T04:48:51;100764.30;;;2.30;73.49
51147;BME280;37207;53.060;18.726;2023-03-19T04:51:17;100761.66;;;2.33;73.64
51147;BME280;37207;53.060;18.726;2023-03-19T04:53:46;100765.17;;;2.35;73.73
51147;BME280;37207;53.060;18.726;2023-03-19T04:56:13;100766.52;;;2.39;73.82
51147;BME280;37207;53.060;18.726;2023-03-19T04:58:43;100768.88;;;2.41;73.84
51147;BME280;37207;53.060;18.726;2023-03-19T05:01:10;100768.11;;;2.43;73.60
51147;BME280;37207;53.060;18.726;2023-03-19T05:03:56;100770.48;;;2.44;73.50
51147;BME280;37207;53.060;18.726;2023-03-19T05:06:23;100769.64;;;2.48;73.42
51147;BME280;37207;53.060;18.726;2023-03-19T05:08:50;100769.59;;;2.50;73.56
51147;BME280;37207;53.060;18.726;2023-03-19T05:11:17;100769.12;;;2.50;73.56
51147;BME280;37207;53.060;18.726;2023-03-19T05:14:04;100765.59;;;2.52;73.49
51147;BME280;37207;53.060;18.726;2023-03-19T05:16:50;100764.21;;;2.53;73.55
51147;BME280;37207;53.060;18.726;2023-03-19T05:19:17;100766.82;;;2.56;73.44
51147;BME280;37207;53.060;18.726;2023-03-19T05:21:44;100767.40;;;2.60;73.41
51147;BME280;37207;53.060;18.726;2023-03-19T05:24:12;100758.64;;;2.64;73.44
51147;BME280;37207;53.060;18.726;2023-03-19T05:26:38;100752.75;;;2.66;73.65
51147;BME280;37207;53.060;18.726;2023-03-19T05:29:27;100749.47;;;2.70;73.40
51147;BME280;37207;53.060;18.726;2023-03-19T05:32:03;100752.60;;;2.76;73.35
51147;BME280;37207;53.060;18.726;2023-03-19T05:34:30;100756.11;;;2.82;73.44
51147;BME280;37207;53.060;18.726;2023-03-19T05:36:57;100759.02;;;2.87;73.34
51147;BME280;37207;53.060;18.726;2023-03-19T05:39:24;100759.58;;;2.93;73.33
51147;BME280;37207;53.060;18.726;2023-03-19T05:41:50;100759.45;;;3.00;73.19
51147;BME280;37207;53.060;18.726;2023-03-19T05:44:20;100756.76;;;3.08;73.16
51147;BME280;37207;53.060;18.726;2023-03-19T05:46:53;100756.30;;;3.16;73.14
51147;BME280;37207;53.060;18.726;2023-03-19T05:49:21;100759.16;;;3.24;72.97
51147;BME280;37207;53.060;18.726;2023-03-19T05:51:48;100756.66;;;3.32;72.87
51147;BME280;37207;53.060;18.726;2023-03-19T05:54:15;100758.98;;;3.42;72.82
51147;BME280;37207;53.060;18.726;2023-03-19T05:56:51;100758.65;;;3.53;72.61
51147;BME280;37207;53.060;18.726;2023-03-19T05:59:36;100752.45;;;3.63;72.46
51147;BME280;37207;53.060;18.726;2023-03-19T06:02:17;100751.55;;;3.72;72.20
51147;BME280;37207;53.060;18.726;2023-03-19T06:04:44;100752.67;;;3.81;72.20
51147;BME280;37207;53.060;18.726;2023-03-19T06:07:10;100757.09;;;3.91;72.04
51147;BME280;37207;53.060;18.726;2023-03-19T06:09:37;100757.16;;;3.99;71.92
51147;BME280;37207;53.060;18.726;2023-03-19T06:12:04;100755.83;;;4.07;71.80
51147;BME280;37207;53.060;18.726;2023-03-19T06:14:57;100759.80;;;4.15;71.76
51147;BME280;37207;53.060;18.726;2023-03-19T06:17:42;100763.73;;;4.22;71.45
51147;BME280;37207;53.060;18.726;2023-03-19T06:20:11;100764.21;;;4.27;71.35
51147;BME280;37207;53.060;18.726;2023-03-19T06:22:39;100775.85;;;4.32;71.24
51147;BME280;37207;53.060;18.726;2023-03-19T06:25:06;100779.71;;;4.38;71.15
51147;BME280;37207;53.060;18.726;2023-03-19T06:27:35;100785.46;;;4.45;71.04
51147;BME280;37207;53.060;18.726;2023-03-19T06:30:20;100790.77;;;4.51;70.88
51147;BME280;37207;53.060;18.726;2023-03-19T06:32:47;100792.90;;;4.56;70.76
51147;BME280;37207;53.060;18.726;2023-03-19T06:35:14;100789.77;;;4.62;70.45
51147;BME280;37207;53.060;18.726;2023-03-19T06:37:43;100797.52;;;4.68;70.47
51147;BME280;37207;53.060;18.726;2023-03-19T06:40:10;100804.83;;;4.74;70.27
51147;BME280;37207;53.060;18.726;2023-03-19T06:42:36;100804.13;;;4.82;70.10
51147;BME280;37207;53.060;18.726;2023-03-19T06:45:03;100807.52;;;4.90;70.06
51147;BME280;37207;53.060;18.726;2023-03-19T06:47:30;100802.34;;;4.98;70.00
51147;BME280;37207;53.060;18.726;2023-03-19T06:49:56;100801.67;;;5.06;69.82
51147;BME280;37207;53.060;18.726;2023-03-19T06:52:23;100802.73;;;5.14;69.70
51147;BME280;37207;53.060;18.726;2023-03-19T06:54:49;100803.95;;;5.24;69.59
51147;BME280;37207;53.060;18.726;2023-03-19T06:57:16;100801.80;;;5.34;69.58
51147;BME280;37207;53.060;18.726;2023-03-19T06:59:42;100806.20;;;5.52;69.58
51147;BME280;37207;53.060;18.726;2023-03-19T07:02:10;100808.32;;;5.67;69.37
51147;BME280;37207;53.060;18.726;2023-03-19T07:04:37;100810.05;;;5.82;69.26
51147;BME280;37207;53.060;18.726;2023-03-19T07:07:04;100821.56;;;6.06;68.91
51147;BME280;37207;53.060;18.726;2023-03-19T07:09:31;100821.14;;;6.39;68.75
51147;BME280;37207;53.060;18.726;2023-03-19T07:11:58;100828.02;;;6.91;68.47
51147;BME280;37207;53.060;18.726;2023-03-19T07:14:24;100828.86;;;7.39;67.66
51147;BME280;37207;53.060;18.726;2023-03-19T07:16:51;100827.29;;;7.89;66.81
51147;BME280;37207;53.060;18.726;2023-03-19T07:19:18;100826.64;;;8.41;66.27
51147;BME280;37207;53.060;18.726;2023-03-19T07:21:44;100825.04;;;8.85;65.40
51147;BME280;37207;53.060;18.726;2023-03-19T07:24:12;100828.39;;;8.93;64.54
51147;BME280;37207;53.060;18.726;2023-03-19T07:26:38;100825.69;;;8.84;64.05
51147;BME280;37207;53.060;18.726;2023-03-19T07:29:05;100823.16;;;8.86;63.66
51147;BME280;37207;53.060;18.726;2023-03-19T07:31:31;100824.69;;;9.06;63.18
51147;BME280;37207;53.060;18.726;2023-03-19T07:33:58;100826.23;;;9.38;62.96
51147;BME280;37207;53.060;18.726;2023-03-19T07:36:24;100824.45;;;10.11;62.19
51147;BME280;37207;53.060;18.726;2023-03-19T07:38:51;100825.23;;;10.49;61.17
51147;BME280;37207;53.060;18.726;2023-03-19T07:41:18;100824.13;;;10.74;60.55
51147;BME280;37207;53.060;18.726;2023-03-19T07:43:44;100823.38;;;11.17;60.09
51147;BME280;37207;53.060;18.726;2023-03-19T07:46:11;100826.22;;;11.35;58.96
51147;BME280;37207;53.060;18.726;2023-03-19T07:48:37;100832.65;;;11.30;58.64
51147;BME280;37207;53.060;18.726;2023-03-19T07:51:04;100835.52;;;11.93;58.77
51147;BME280;37207;53.060;18.726;2023-03-19T07:53:31;100832.06;;;12.94;57.43
51147;BME280;37207;53.060;18.726;2023-03-19T07:55:57;100826.95;;;13.69;56.77
51147;BME280;37207;53.060;18.726;2023-03-19T07:58:24;100822.96;;;14.62;55.13
51147;BME280;37207;53.060;18.726;2023-03-19T08:00:52;100820.48;;;15.38;54.11
51147;BME280;37207;53.060;18.726;2023-03-19T08:03:19;100821.30;;;16.62;51.73
51147;BME280;37207;53.060;18.726;2023-03-19T08:05:49;100820.71;;;17.78;48.59
51147;BME280;37207;53.060;18.726;2023-03-19T08:08:17;100817.11;;;18.96;48.94
51147;BME280;37207;53.060;18.726;2023-03-19T08:10:44;100816.70;;;19.92;47.48
51147;BME280;37207;53.060;18.726;2023-03-19T08:13:12;100816.23;;;20.51;45.44
51147;BME280;37207;53.060;18.726;2023-03-19T08:15:39;100817.67;;;21.03;44.81
51147;BME280;37207;53.060;18.726;2023-03-19T08:18:06;100821.39;;;21.53;43.85
51147;BME280;37207;53.060;18.726;2023-03-19T08:20:32;100819.62;;;21.95;41.92
51147;BME280;37207;53.060;18.726;2023-03-19T08:22:59;100817.52;;;22.20;41.21
51147;BME280;37207;53.060;18.726;2023-03-19T08:25:26;100818.61;;;22.31;41.17
51147;BME280;37207;53.060;18.726;2023-03-19T08:27:52;100817.23;;;22.83;40.53
51147;BME280;37207;53.060;18.726;2023-03-19T08:30:19;100812.07;;;23.30;38.68
51147;BME280;37207;53.060;18.726;2023-03-19T08:32:46;100807.44;;;23.66;38.17
51147;BME280;37207;53.060;18.726;2023-03-19T08:35:14;100805.06;;;24.11;37.37
51147;BME280;37207;53.060;18.726;2023-03-19T08:37:41;100800.67;;;24.51;36.45
51147;BME280;37207;53.060;18.726;2023-03-19T08:40:08;100794.99;;;25.04;36.22
51147;BME280;37207;53.060;18.726;2023-03-19T08:42:35;100796.17;;;25.81;35.97
51147;BME280;37207;53.060;18.726;2023-03-19T08:45:11;100791.92;;;26.34;34.27
51147;BME280;37207;53.060;18.726;2023-03-19T08:47:38;100796.08;;;26.38;33.00
51147;BME280;37207;53.060;18.726;2023-03-19T08:50:06;100800.11;;;26.59;33.85
51147;BME280;37207;53.060;18.726;2023-03-19T08:52:33;100803.25;;;27.00;33.25
51147;BME280;37207;53.060;18.726;2023-03-19T08:54:59;100805.86;;;27.28;32.22
51147;BME280;37207;53.060;18.726;2023-03-19T08:57:26;100809.83;;;27.75;32.41
51147;BME280;37207;53.060;18.726;2023-03-19T08:59:52;100804.40;;;28.13;31.93
51147;BME280;37207;53.060;18.726;2023-03-19T09:02:19;100805.42;;;28.26;31.25
51147;BME280;37207;53.060;18.726;2023-03-19T09:04:46;100802.64;;;28.14;30.18
51147;BME280;37207;53.060;18.726;2023-03-19T09:07:12;100799.33;;;27.97;30.23
51147;BME280;37207;53.060;18.726;2023-03-19T09:09:42;100798.98;;;28.05;30.59
51147;BME280;37207;53.060;18.726;2023-03-19T09:12:11;100807.34;;;28.09;30.38
51147;BME280;37207;53.060;18.726;2023-03-19T09:14:38;100808.34;;;27.84;30.28
51147;BME280;37207;53.060;18.726;2023-03-19T09:17:08;100807.38;;;27.55;31.02
51147;BME280;37207;53.060;18.726;2023-03-19T09:19:35;100801.77;;;27.34;30.77
51147;BME280;37207;53.060;18.726;2023-03-19T09:22:03;100803.15;;;27.25;29.87
51147;BME280;37207;53.060;18.726;2023-03-19T09:24:30;100800.14;;;27.21;29.88
51147;BME280;37207;53.060;18.726;2023-03-19T09:26:57;100800.69;;;27.52;29.63
51147;BME280;37207;53.060;18.726;2023-03-19T09:29:23;100799.60;;;28.24;29.06
51147;BME280;37207;53.060;18.726;2023-03-19T09:31:50;100793.12;;;28.82;27.37
51147;BME280;37207;53.060;18.726;2023-03-19T09:34:16;100794.75;;;29.25;26.96
51147;BME280;37207;53.060;18.726;2023-03-19T09:36:44;100793.12;;;29.73;27.46
51147;BME280;37207;53.060;18.726;2023-03-19T09:39:10;100788.11;;;30.40;26.75
51147;BME280;37207;53.060;18.726;2023-03-19T09:44:29;100789.05;;;30.49;26.13
51147;BME280;37207;53.060;18.726;2023-03-19T09:50:20;100784.23;;;28.96;27.64
51147;BME280;37207;53.060;18.726;2023-03-19T09:57:49;100780.27;;;26.25;29.44
51147;BME280;37207;53.060;18.726;2023-03-19T10:00:39;100778.80;;;25.45;30.04
51147;BME280;37207;53.060;18.726;2023-03-19T10:03:24;100771.77;;;24.82;30.21
51147;BME280;37207;53.060;18.726;2023-03-19T10:16:36;100760.82;;;25.05;30.10
51147;BME280;37207;53.060;18.726;2023-03-19T10:19:05;100767.48;;;25.54;29.71
51147;BME280;37207;53.060;18.726;2023-03-19T10:24:21;100764.71;;;26.83;28.77
51147;BME280;37207;53.060;18.726;2023-03-19T10:26:55;100767.59;;;26.12;28.51
51147;BME280;37207;53.060;18.726;2023-03-19T10:29:23;100764.90;;;25.71;28.81
51147;BME280;37207;53.060;18.726;2023-03-19T10:34:40;100768.48;;;26.21;28.37
51147;BME280;37207;53.060;18.726;2023-03-19T10:37:25;100768.93;;;26.38;28.37
51147;BME280;37207;53.060;18.726;2023-03-19T10:39:57;100763.95;;;26.47;28.33
51147;BME280;37207;53.060;18.726;2023-03-19T10:45:27;100755.44;;;25.61;29.10
51147;BME280;37207;53.060;18.726;2023-03-19T10:47:55;100755.19;;;24.87;29.44
51147;BME280;37207;53.060;18.726;2023-03-19T10:50:27;100756.03;;;24.12;30.07
51147;BME280;37207;53.060;18.726;2023-03-19T10:55:30;100757.10;;;22.94;31.51
51147;BME280;37207;53.060;18.726;2023-03-19T10:58:03;100755.24;;;22.52;31.97
51147;BME280;37207;53.060;18.726;2023-03-19T11:00:32;100756.41;;;22.32;32.54
51147;BME280;37207;53.060;18.726;2023-03-19T11:03:01;100749.64;;;22.38;32.67
51147;BME280;37207;53.060;18.726;2023-03-19T11:05:33;100745.77;;;22.34;32.84
51147;BME280;37207;53.060;18.726;2023-03-19T11:08:04;100745.23;;;22.07;32.82
51147;BME280;37207;53.060;18.726;2023-03-19T11:10:33;100745.44;;;21.88;33.18
51147;BME280;37207;53.060;18.726;2023-03-19T11:13:11;100744.84;;;21.77;33.23
51147;BME280;37207;53.060;18.726;2023-03-19T11:15:46;100739.29;;;21.76;33.18
51147;BME280;37207;53.060;18.726;2023-03-19T11:18:21;100734.86;;;21.81;33.66
51147;BME280;37207;53.060;18.726;2023-03-19T11:20:54;100736.71;;;22.03;34.03
51147;BME280;37207;53.060;18.726;2023-03-19T11:23:21;100734.16;;;22.30;34.02
51147;BME280;37207;53.060;18.726;2023-03-19T11:25:52;100727.84;;;22.55;33.74
51147;BME280;37207;53.060;18.726;2023-03-19T11:28:21;100725.27;;;22.80;33.48
51147;BME280;37207;53.060;18.726;2023-03-19T11:31:06;100719.52;;;23.07;33.17
51147;BME280;37207;53.060;18.726;2023-03-19T11:38:54;100716.66;;;24.14;32.63
51147;BME280;37207;53.060;18.726;2023-03-19T11:44:06;100717.25;;;24.86;31.61
51147;BME280;37207;53.060;18.726;2023-03-19T11:46:43;100717.67;;;25.00;31.51
51147;BME280;37207;53.060;18.726;2023-03-19T11:52:24;100721.99;;;24.57;30.29
51147;BME280;37207;53.060;18.726;2023-03-19T12:00:50;100719.38;;;24.09;31.09
51147;BME280;37207;53.060;18.726;2023-03-19T12:09:08;100713.65;;;24.66;30.14
51147;BME280;37207;53.060;18.726;2023-03-19T12:11:51;100711.70;;;24.64;30.50
51147;BME280;37207;53.060;18.726;2023-03-19T12:17:52;100712.79;;;23.72;30.77
51147;BME280;37207;53.060;18.726;2023-03-19T12:23:04;100716.20;;;22.39;32.01
51147;BME280;37207;53.060;18.726;2023-03-19T12:28:28;100711.27;;;21.30;32.61
51147;BME280;37207;53.060;18.726;2023-03-19T12:31:20;100708.48;;;20.74;33.43
51147;BME280;37207;53.060;18.726;2023-03-19T12:34:00;100700.98;;;20.37;34.40
51147;BME280;37207;53.060;18.726;2023-03-19T12:36:37;100698.88;;;20.15;34.73
51147;BME280;37207;53.060;18.726;2023-03-19T12:39:11;100697.84;;;19.92;34.93
51147;BME280;37207;53.060;18.726;2023-03-19T12:41:42;100697.59;;;19.71;35.24
51147;BME280;37207;53.060;18.726;2023-03-19T12:46:46;100693.02;;;19.40;35.86
51147;BME280;37207;53.060;18.726;2023-03-19T12:54:58;100690.05;;;18.94;37.15
51147;BME280;37207;53.060;18.726;2023-03-19T12:57:30;100683.08;;;18.75;37.26
51147;BME280;37207;53.060;18.726;2023-03-19T13:00:16;100680.23;;;18.54;37.50
51147;BME280;37207;53.060;18.726;2023-03-19T13:05:42;100679.02;;;18.06;38.16
51147;BME280;37207;53.060;18.726;2023-03-19T13:10:37;100677.33;;;17.65;38.65
51147;BME280;37207;53.060;18.726;2023-03-19T13:13:39;100678.67;;;17.47;38.96
51147;BME280;37207;53.060;18.726;2023-03-19T13:16:22;100675.13;;;17.27;39.40
51147;BME280;37207;53.060;18.726;2023-03-19T13:21:41;100672.28;;;16.99;39.82
51147;BME280;37207;53.060;18.726;2023-03-19T13:24:27;100674.35;;;16.88;40.16
51147;BME280;37207;53.060;18.726;2023-03-19T13:26:57;100675.16;;;16.77;40.63
51147;BME280;37207;53.060;18.726;2023-03-19T13:29:30;100674.40;;;16.69;40.88
51147;BME280;37207;53.060;18.726;2023-03-19T13:32:03;100676.85;;;16.62;41.26
51147;BME280;37207;53.060;18.726;2023-03-19T13:34:34;100676.80;;;16.57;41.56
51147;BME280;37207;53.060;18.726;2023-03-19T13:37:13;100677.39;;;16.50;41.54
51147;BME280;37207;53.060;18.726;2023-03-19T13:39:42;100679.64;;;16.44;41.87
51147;BME280;37207;53.060;18.726;2023-03-19T13:44:53;100682.99;;;16.34;42.28
51147;BME280;37207;53.060;18.726;2023-03-19T13:55:28;100687.11;;;16.13;42.98
51147;BME280;37207;53.060;18.726;2023-03-19T14:01:04;100686.49;;;16.00;43.23
51147;BME280;37207;53.060;18.726;2023-03-19T14:03:33;100685.55;;;15.93;43.39
51147;BME280;37207;53.060;18.726;2023-03-19T14:06:01;100680.20;;;15.86;43.52
51147;BME280;37207;53.060;18.726;2023-03-19T14:08:42;100683.17;;;15.80;43.80
51147;BME280;37207;53.060;18.726;2023-03-19T14:11:22;100681.48;;;15.74;44.04
51147;BME280;37207;53.060;18.726;2023-03-19T14:13:51;100682.18;;;15.67;44.21
51147;BME280;37207;53.060;18.726;2023-03-19T14:16:25;100681.52;;;15.62;44.36
51147;BME280;37207;53.060;18.726;2023-03-19T14:18:56;100680.14;;;15.56;44.55
51147;BME280;37207;53.060;18.726;2023-03-19T14:22:20;100676.16;;;15.51;44.72
51147;BME280;37207;53.060;18.726;2023-03-19T14:26:50;100672.87;;;15.44;45.03
51147;BME280;37207;53.060;18.726;2023-03-19T14:29:18;100674.81;;;15.41;45.12
51147;BME280;37207;53.060;18.726;2023-03-19T14:31:49;100674.40;;;15.37;45.13
51147;BME280;37207;53.060;18.726;2023-03-19T14:34:26;100674.02;;;15.34;45.42
51147;BME280;37207;53.060;18.726;2023-03-19T14:37:33;100670.68;;;15.32;45.60
51147;BME280;37207;53.060;18.726;2023-03-19T14:40:13;100667.34;;;15.31;45.93